sensor_id;sensor_type;location;lat;lon;timestamp;temperature;humidity
52016;DHT22;38032;53.326;6.472;2023-03-14T00:02:22;10.50;99.90
52016;DHT22;38032;53.326;6.472;2023-03-14T00:04:48;10.50;99.90
52016;DHT22;38032;53.326;6.472;2023-03-14T00:07:14;10.50;99.90
52016;DHT22;38032;53.326;6.472;2023-03-14T00:09:40;10.50;99.90
52016;DHT22;38032;53.326;6.472;2023-03-14T00:12:06;10.50;99.90
52016;DHT22;38032;53.326;6.472;2023-03-14T00:14:33;10.50;99.90
52016;DHT22;38032;53.326;6.472;2023-03-14T00:16:59;10.50;99.90
52016;DHT22;38032;53.326;6.472;2023-03-14T00:19:25;10.50;99.90
52016;DHT22;38032;53.326;6.472;2023-03-14T00:21:51;10.60;99.90
52016;DHT22;38032;53.326;6.472;2023-03-14T00:24:16;10.60;99.90
52016;DHT22;38032;53.326;6.472;2023-03-14T00:26:42;10.60;99.90
52016;DHT22;38032;53.326;6.472;2023-03-14T00:29:08;10.60;99.90
52016;DHT22;38032;53.326;6.472;2023-03-14T00:31:34;10.50;99.90
52016;DHT22;38032;53.326;6.472;2023-03-14T00:34:01;10.60;99.90
52016;DHT22;38032;53.326;6.472;2023-03-14T00:36:27;10.60;99.90
52016;DHT22;38032;53.326;6.472;2023-03-14T00:38:53;10.60;99.90
52016;DHT22;38032;53.326;6.472;2023-03-14T00:41:23;10.60;99.90
52016;DHT22;38032;53.326;6.472;2023-03-14T00:43:50;10.60;99.90
52016;DHT22;38032;53.326;6.472;2023-03-14T00:46:16;10.60;99.90
52016;DHT22;38032;53.326;6.472;2023-03-14T00:48:44;10.60;99.90
52016;DHT22;38032;53.326;6.472;2023-03-14T00:51:11;10.60;99.90
52016;DHT22;38032;53.326;6.472;2023-03-14T00:53:40;10.50;99.90
52016;DHT22;38032;53.326;6.472;2023-03-14T00:56:08;10.50;99.90
52016;DHT22;38032;53.326;6.472;2023-03-14T00:58:34;10.50;99.90
52016;DHT22;38032;53.326;6.472;2023-03-14T01:01:08;10.50;99.90
52016;DHT22;38032;53.326;6.472;2023-03-14T01:03:34;10.40;99.90
52016;DHT22;38032;53.326;6.472;2023-03-14T01:06:08;10.50;99.90
52016;DHT22;38032;53.326;6.472;2023-03-14T01:08:33;10.50;99.90
52016;DHT22;38032;53.326;6.472;2023-03-14T01:10:59;10.50;99.90
52016;DHT22;38032;53.326;6.472;2023-03-14T01:13:25;10.50;99.90
52016;DHT22;38032;53.326;6.472;2023-03-14T01:15:51;10.60;99.90
52016;DHT22;38032;53.326;6.472;2023-03-14T01:18:17;10.60;99.90
52016;DHT22;38032;53.326;6.472;2023-03-14T01:20:43;10.50;99.90
52016;DHT22;38032;53.326;6.472;2023-03-14T01:23:09;10.50;99.90
52016;DHT22;38032;53.326;6.472;2023-03-14T01:25:41;10.50;99.90
52016;DHT22;38032;53.326;6.472;2023-03-14T01:28:07;10.60;99.90
52016;DHT22;38032;53.326;6.472;2023-03-14T01:30:33;10.60;99.90
52016;DHT22;38032;53.326;6.472;2023-03-14T01:32:58;10.60;99.90
52016;DHT22;38032;53.326;6.472;2023-03-14T01:35:24;10.60;99.90
52016;DHT22;38032;53.326;6.472;2023-03-14T01:37:50;10.70;99.90
52016;DHT22;38032;53.326;6.472;2023-03-14T01:40:16;10.70;99.90
52016;DHT22;38032;53.326;6.472;2023-03-14T01:42:55;10.70;99.90
52016;DHT22;38032;53.326;6.472;2023-03-14T01:48:26;10.70;99.90
52016;DHT22;38032;53.326;6.472;2023-03-14T01:50:53;10.80;99.90
52016;DHT22;38032;53.326;6.472;2023-03-14T01:53:20;10.80;99.90
52016;DHT22;38032;53.326;6.472;2023-03-14T01:55:48;10.90;99.90
52016;DHT22;38032;53.326;6.472;2023-03-14T01:58:15;10.90;99.90
52016;DHT22;38032;53.326;6.472;2023-03-14T02:00:42;10.90;99.90
52016;DHT22;38032;53.326;6.472;2023-03-14T02:03:12;10.90;99.90
52016;DHT22;38032;53.326;6.472;2023-03-14T02:05:42;10.90;99.90
52016;DHT22;38032;53.326;6.472;2023-03-14T02:08:12;10.90;99.90
52016;DHT22;38032;53.326;6.472;2023-03-14T02:10:41;11.00;99.90
52016;DHT22;38032;53.326;6.472;2023-03-14T02:13:08;11.00;99.90
52016;DHT22;38032;53.326;6.472;2023-03-14T02:15:34;10.90;99.90
52016;DHT22;38032;53.326;6.472;2023-03-14T02:18:01;10.90;99.90
52016;DHT22;38032;53.326;6.472;2023-03-14T02:20:34;10.90;99.90
52016;DHT22;38032;53.326;6.472;2023-03-14T02:23:04;10.90;99.90
52016;DHT22;38032;53.326;6.472;2023-03-14T02:25:47;10.90;99.90
52016;DHT22;38032;53.326;6.472;2023-03-14T02:28:14;10.90;99.90
52016;DHT22;38032;53.326;6.472;2023-03-14T02:30:41;10.80;99.90
52016;DHT22;38032;53.326;6.472;2023-03-14T02:33:11;10.80;99.90
52016;DHT22;38032;53.326;6.472;2023-03-14T02:35:42;10.80;99.90
52016;DHT22;38032;53.326;6.472;2023-03-14T02:38:29;10.80;99.90
52016;DHT22;38032;53.326;6.472;2023-03-14T02:40:56;10.70;99.90
52016;DHT22;38032;53.326;6.472;2023-03-14T02:43:22;10.70;99.90
52016;DHT22;38032;53.326;6.472;2023-03-14T02:45:50;10.70;99.90
52016;DHT22;38032;53.326;6.472;2023-03-14T02:48:19;10.70;99.90
52016;DHT22;38032;53.326;6.472;2023-03-14T02:50:47;10.70;99.90
52016;DHT22;38032;53.326;6.472;2023-03-14T02:53:18;10.70;99.90
52016;DHT22;38032;53.326;6.472;2023-03-14T02:55:46;10.70;99.90
52016;DHT22;38032;53.326;6.472;2023-03-14T02:58:12;10.60;99.90
52016;DHT22;38032;53.326;6.472;2023-03-14T03:00:38;10.60;99.90
52016;DHT22;38032;53.326;6.472;2023-03-14T03:03:04;10.60;99.90
52016;DHT22;38032;53.326;6.472;2023-03-14T03:05:32;10.60;99.90
52016;DHT22;38032;53.326;6.472;2023-03-14T03:07:58;10.60;99.90
52016;DHT22;38032;53.326;6.472;2023-03-14T03:10:24;10.60;99.90
52016;DHT22;38032;53.326;6.472;2023-03-14T03:12:50;10.60;99.90
52016;DHT22;38032;53.326;6.472;2023-03-14T03:15:17;10.50;99.90
52016;DHT22;38032;53.326;6.472;2023-03-14T03:17:43;10.60;99.90
52016;DHT22;38032;53.326;6.472;2023-03-14T03:20:09;10.50;99.90
52016;DHT22;38032;53.326;6.472;2023-03-14T03:22:36;10.50;99.90
52016;DHT22;38032;53.326;6.472;2023-03-14T03:25:04;10.50;99.90
52016;DHT22;38032;53.326;6.472;2023-03-14T03:27:32;10.50;99.90
52016;DHT22;38032;53.326;6.472;2023-03-14T03:29:58;10.50;99.90
52016;DHT22;38032;53.326;6.472;2023-03-14T03:32:24;10.50;99.90
52016;DHT22;38032;53.326;6.472;2023-03-14T03:34:50;10.50;99.90
52016;DHT22;38032;53.326;6.472;2023-03-14T03:37:16;10.40;99.90
52016;DHT22;38032;53.326;6.472;2023-03-14T03:39:42;10.40;99.90
52016;DHT22;38032;53.326;6.472;2023-03-14T03:42:08;10.40;99.90
52016;DHT22;38032;53.326;6.472;2023-03-14T03:44:34;10.40;99.90
52016;DHT22;38032;53.326;6.472;2023-03-14T03:47:00;10.40;99.90
52016;DHT22;38032;53.326;6.472;2023-03-14T03:49:29;10.40;99.90
52016;DHT22;38032;53.326;6.472;2023-03-14T03:51:55;10.30;99.90
52016;DHT22;38032;53.326;6.472;2023-03-14T03:54:21;10.30;99.90
52016;DHT22;38032;53.326;6.472;2023-03-14T03:56:47;10.30;99.90
52016;DHT22;38032;53.326;6.472;2023-03-14T03:59:13;10.30;99.90
52016;DHT22;38032;53.326;6.472;2023-03-14T04:01:39;10.30;99.90
52016;DHT22;38032;53.326;6.472;2023-03-14T04:04:06;10.30;99.90
52016;DHT22;38032;53.326;6.472;2023-03-14T04:06:32;10.30;99.90
52016;DHT22;38032;53.326;6.472;2023-03-14T04:08:58;10.30;99.90
52016;DHT22;38032;53.326;6.472;2023-03-14T04:11:24;10.30;99.90
52016;DHT22;38032;53.326;6.472;2023-03-14T04:13:50;10.30;99.90
52016;DHT22;38032;53.326;6.472;2023-03-14T04:16:19;10.30;99.90
52016;DHT22;38032;53.326;6.472;2023-03-14T04:18:46;10.30;99.90
52016;DHT22;38032;53.326;6.472;2023-03-14T04:21:12;10.30;99.90
52016;DHT22;38032;53.326;6.472;2023-03-14T04:23:38;10.30;99.90
52016;DHT22;38032;53.326;6.472;2023-03-14T04:26:04;10.30;99.90
52016;DHT22;38032;53.326;6.472;2023-03-14T04:28:30;10.30;99.90
52016;DHT22;38032;53.326;6.472;2023-03-14T04:30:56;10.30;99.90
52016;DHT22;38032;53.326;6.472;2023-03-14T04:33:22;10.30;99.90
52016;DHT22;38032;53.326;6.472;2023-03-14T04:35:48;10.30;99.90
52016;DHT22;38032;53.326;6.472;2023-03-14T04:38:16;10.30;99.90
52016;DHT22;38032;53.326;6.472;2023-03-14T04:40:42;10.30;99.90
52016;DHT22;38032;53.326;6.472;2023-03-14T04:43:10;10.30;99.90
52016;DHT22;38032;53.326;6.472;2023-03-14T04:45:37;10.30;99.90
52016;DHT22;38032;53.326;6.472;2023-03-14T04:48:03;10.30;99.90
52016;DHT22;38032;53.326;6.472;2023-03-14T04:50:29;10.30;99.90
52016;DHT22;38032;53.326;6.472;2023-03-14T04:52:55;10.30;99.90
52016;DHT22;38032;53.326;6.472;2023-03-14T04:55:20;10.30;99.90
52016;DHT22;38032;53.326;6.472;2023-03-14T04:57:46;10.20;99.90
52016;DHT22;38032;53.326;6.472;2023-03-14T05:00:13;10.20;99.90
52016;DHT22;38032;53.326;6.472;2023-03-14T05:02:39;10.20;99.90
52016;DHT22;38032;53.326;6.472;2023-03-14T05:05:05;10.20;99.90
52016;DHT22;38032;53.326;6.472;2023-03-14T05:07:31;10.20;99.90
52016;DHT22;38032;53.326;6.472;2023-03-14T05:09:57;10.20;99.90
52016;DHT22;38032;53.326;6.472;2023-03-14T05:12:23;10.20;99.90
52016;DHT22;38032;53.326;6.472;2023-03-14T05:14:49;10.20;99.90
52016;DHT22;38032;53.326;6.472;2023-03-14T05:17:14;10.10;99.90
52016;DHT22;38032;53.326;6.472;2023-03-14T05:19:41;10.20;99.90
52016;DHT22;38032;53.326;6.472;2023-03-14T05:22:07;10.20;99.90
52016;DHT22;38032;53.326;6.472;2023-03-14T05:24:33;10.10;99.90
52016;DHT22;38032;53.326;6.472;2023-03-14T05:26:59;10.10;99.90
52016;DHT22;38032;53.326;6.472;2023-03-14T05:29:25;10.10;99.90
52016;DHT22;38032;53.326;6.472;2023-03-14T05:31:50;10.10;99.90
52016;DHT22;38032;53.326;6.472;2023-03-14T05:34:16;10.10;99.90
52016;DHT22;38032;53.326;6.472;2023-03-14T05:36:42;10.10;99.90
52016;DHT22;38032;53.326;6.472;2023-03-14T05:39:08;10.10;99.90
52016;DHT22;38032;53.326;6.472;2023-03-14T05:41:34;10.10;99.90
52016;DHT22;38032;53.326;6.472;2023-03-14T05:44:01;10.10;99.90
52016;DHT22;38032;53.326;6.472;2023-03-14T05:46:27;10.10;99.90
52016;DHT22;38032;53.326;6.472;2023-03-14T05:48:53;10.10;99.90
52016;DHT22;38032;53.326;6.472;2023-03-14T05:51:18;10.10;99.90
52016;DHT22;38032;53.326;6.472;2023-03-14T05:53:44;10.10;99.90
52016;DHT22;38032;53.326;6.472;2023-03-14T05:56:10;10.10;99.90
52016;DHT22;38032;53.326;6.472;2023-03-14T05:58:36;10.10;99.90
52016;DHT22;38032;53.326;6.472;2023-03-14T06:01:03;10.10;99.90
52016;DHT22;38032;53.326;6.472;2023-03-14T06:03:30;10.10;99.90
52016;DHT22;38032;53.326;6.472;2023-03-14T06:05:55;10.10;99.90
52016;DHT22;38032;53.326;6.472;2023-03-14T06:08:21;10.00;99.90
52016;DHT22;38032;53.326;6.472;2023-03-14T06:10:47;10.00;99.90
52016;DHT22;38032;53.326;6.472;2023-03-14T06:13:13;10.00;99.90
52016;DHT22;38032;53.326;6.472;2023-03-14T06:15:41;9.90;99.90
52016;DHT22;38032;53.326;6.472;2023-03-14T06:18:07;9.90;99.90
52016;DHT22;38032;53.326;6.472;2023-03-14T06:20:33;9.80;99.90
52016;DHT22;38032;53.326;6.472;2023-03-14T06:23:01;9.70;99.90
52016;DHT22;38032;53.326;6.472;2023-03-14T06:25:26;9.50;99.90
52016;DHT22;38032;53.326;6.472;2023-03-14T06:27:52;9.40;99.90
52016;DHT22;38032;53.326;6.472;2023-03-14T06:30:18;9.20;99.90
52016;DHT22;38032;53.326;6.472;2023-03-14T06:32:44;9.00;99.90
52016;DHT22;38032;53.326;6.472;2023-03-14T06:35:10;8.90;99.90
52016;DHT22;38032;53.326;6.472;2023-03-14T06:37:36;8.80;99.90
52016;DHT22;38032;53.326;6.472;2023-03-14T06:40:02;8.70;99.90
52016;DHT22;38032;53.326;6.472;2023-03-14T06:42:28;8.70;99.90
52016;DHT22;38032;53.326;6.472;2023-03-14T06:44:54;8.60;99.90
52016;DHT22;38032;53.326;6.472;2023-03-14T06:47:20;8.50;99.90
52016;DHT22;38032;53.326;6.472;2023-03-14T06:49:46;8.50;99.90
52016;DHT22;38032;53.326;6.472;2023-03-14T06:52:11;8.40;99.90
52016;DHT22;38032;53.326;6.472;2023-03-14T06:54:37;8.30;99.90
52016;DHT22;38032;53.326;6.472;2023-03-14T06:57:03;8.30;99.90
52016;DHT22;38032;53.326;6.472;2023-03-14T06:59:29;8.20;99.90
52016;DHT22;38032;53.326;6.472;2023-03-14T07:01:55;8.10;99.90
52016;DHT22;38032;53.326;6.472;2023-03-14T07:04:21;8.10;99.90
52016;DHT22;38032;53.326;6.472;2023-03-14T07:06:47;8.10;99.90
52016;DHT22;38032;53.326;6.472;2023-03-14T07:09:14;8.00;99.90
52016;DHT22;38032;53.326;6.472;2023-03-14T07:11:39;8.00;99.90
52016;DHT22;38032;53.326;6.472;2023-03-14T07:14:05;8.00;99.90
52016;DHT22;38032;53.326;6.472;2023-03-14T07:16:31;7.90;99.90
52016;DHT22;38032;53.326;6.472;2023-03-14T07:18:59;7.90;99.90
52016;DHT22;38032;53.326;6.472;2023-03-14T07:21:25;7.80;99.90
52016;DHT22;38032;53.326;6.472;2023-03-14T07:23:51;7.70;99.90
52016;DHT22;38032;53.326;6.472;2023-03-14T07:26:17;7.70;99.90
52016;DHT22;38032;53.326;6.472;2023-03-14T07:28:43;7.70;99.90
52016;DHT22;38032;53.326;6.472;2023-03-14T07:31:09;7.70;99.90
52016;DHT22;38032;53.326;6.472;2023-03-14T07:33:35;7.70;99.90
52016;DHT22;38032;53.326;6.472;2023-03-14T07:36:01;7.60;99.90
52016;DHT22;38032;53.326;6.472;2023-03-14T07:38:28;7.60;99.90
52016;DHT22;38032;53.326;6.472;2023-03-14T07:41:02;7.60;99.90
52016;DHT22;38032;53.326;6.472;2023-03-14T07:43:29;7.70;99.90
52016;DHT22;38032;53.326;6.472;2023-03-14T07:45:55;7.70;99.90
52016;DHT22;38032;53.326;6.472;2023-03-14T07:48:20;7.70;99.90
52016;DHT22;38032;53.326;6.472;2023-03-14T07:50:48;7.70;99.90
52016;DHT22;38032;53.326;6.472;2023-03-14T07:53:15;7.70;99.90
52016;DHT22;38032;53.326;6.472;2023-03-14T07:55:41;7.80;99.90
52016;DHT22;38032;53.326;6.472;2023-03-14T07:58:06;7.80;99.90
52016;DHT22;38032;53.326;6.472;2023-03-14T08:00:32;7.80;99.90
52016;DHT22;38032;53.326;6.472;2023-03-14T08:02:58;7.90;99.90
52016;DHT22;38032;53.326;6.472;2023-03-14T08:05:24;7.90;99.90
52016;DHT22;38032;53.326;6.472;2023-03-14T08:07:50;8.00;99.90
52016;DHT22;38032;53.326;6.472;2023-03-14T08:10:16;8.20;99.90
52016;DHT22;38032;53.326;6.472;2023-03-14T08:12:49;8.20;99.90
52016;DHT22;38032;53.326;6.472;2023-03-14T08:15:15;8.30;99.90
52016;DHT22;38032;53.326;6.472;2023-03-14T08:17:41;8.40;99.90
52016;DHT22;38032;53.326;6.472;2023-03-14T08:20:08;8.50;99.90
52016;DHT22;38032;53.326;6.472;2023-03-14T08:22:36;8.60;99.90
52016;DHT22;38032;53.326;6.472;2023-03-14T08:25:03;8.70;99.90
52016;DHT22;38032;53.326;6.472;2023-03-14T08:27:29;8.80;99.90
52016;DHT22;38032;53.326;6.472;2023-03-14T08:29:55;8.90;99.90
52016;DHT22;38032;53.326;6.472;2023-03-14T08:32:21;9.00;99.90
52016;DHT22;38032;53.326;6.472;2023-03-14T08:34:48;9.10;99.90
52016;DHT22;38032;53.326;6.472;2023-03-14T08:37:14;9.20;99.90
52016;DHT22;38032;53.326;6.472;2023-03-14T08:39:41;9.20;99.90
52016;DHT22;38032;53.326;6.472;2023-03-14T08:42:06;9.30;99.90
52016;DHT22;38032;53.326;6.472;2023-03-14T08:44:32;9.30;99.90
52016;DHT22;38032;53.326;6.472;2023-03-14T08:46:58;9.40;99.90
52016;DHT22;38032;53.326;6.472;2023-03-14T08:49:24;9.40;99.90
52016;DHT22;38032;53.326;6.472;2023-03-14T08:51:50;9.50;99.90
52016;DHT22;38032;53.326;6.472;2023-03-14T08:54:16;9.50;99.90
52016;DHT22;38032;53.326;6.472;2023-03-14T08:56:42;9.60;99.90
52016;DHT22;38032;53.326;6.472;2023-03-14T08:59:07;9.80;99.90
52016;DHT22;38032;53.326;6.472;2023-03-14T09:01:33;10.20;99.90
52016;DHT22;38032;53.326;6.472;2023-03-14T09:03:59;10.70;99.90
52016;DHT22;38032;53.326;6.472;2023-03-14T09:06:25;11.00;99.90
52016;DHT22;38032;53.326;6.472;2023-03-14T09:08:51;11.30;99.90
52016;DHT22;38032;53.326;6.472;2023-03-14T09:11:18;11.40;99.90
52016;DHT22;38032;53.326;6.472;2023-03-14T09:13:44;11.30;99.90
52016;DHT22;38032;53.326;6.472;2023-03-14T09:16:10;11.20;99.90
52016;DHT22;38032;53.326;6.472;2023-03-14T09:18:36;11.00;99.90
52016;DHT22;38032;53.326;6.472;2023-03-14T09:21:02;11.00;99.90
52016;DHT22;38032;53.326;6.472;2023-03-14T09:23:28;10.80;99.90
52016;DHT22;38032;53.326;6.472;2023-03-14T09:25:56;10.70;99.90
52016;DHT22;38032;53.326;6.472;2023-03-14T09:28:22;10.60;99.90
52016;DHT22;38032;53.326;6.472;2023-03-14T09:30:48;10.40;99.90
52016;DHT22;38032;53.326;6.472;2023-03-14T09:33:16;10.40;99.90
52016;DHT22;38032;53.326;6.472;2023-03-14T09:35:42;10.30;99.90
52016;DHT22;38032;53.326;6.472;2023-03-14T09:38:07;10.30;99.90
52016;DHT22;38032;53.326;6.472;2023-03-14T09:40:36;10.30;99.90
52016;DHT22;38032;53.326;6.472;2023-03-14T09:43:03;10.40;99.90
52016;DHT22;38032;53.326;6.472;2023-03-14T09:45:34;10.50;99.90
52016;DHT22;38032;53.326;6.472;2023-03-14T09:48:02;10.40;99.90
52016;DHT22;38032;53.326;6.472;2023-03-14T09:50:38;10.40;99.90
52016;DHT22;38032;53.326;6.472;2023-03-14T09:53:11;10.40;99.90
52016;DHT22;38032;53.326;6.472;2023-03-14T09:55:38;10.40;99.90
52016;DHT22;38032;53.326;6.472;2023-03-14T09:58:11;10.40;99.90
52016;DHT22;38032;53.326;6.472;2023-03-14T10:00:37;10.60;99.90
52016;DHT22;38032;53.326;6.472;2023-03-14T10:05:49;11.30;99.90
52016;DHT22;38032;53.326;6.472;2023-03-14T10:08:15;11.60;99.90
52016;DHT22;38032;53.326;6.472;2023-03-14T10:10:42;11.80;99.90
52016;DHT22;38032;53.326;6.472;2023-03-14T10:15:40;11.90;98.40
52016;DHT22;38032;53.326;6.472;2023-03-14T10:18:12;12.00;99.00
52016;DHT22;38032;53.326;6.472;2023-03-14T10:20:41;12.10;97.50
52016;DHT22;38032;53.326;6.472;2023-03-14T10:25:39;12.30;96.40
52016;DHT22;38032;53.326;6.472;2023-03-14T10:28:05;12.80;95.40
52016;DHT22;38032;53.326;6.472;2023-03-14T10:30:40;13.50;92.70
52016;DHT22;38032;53.326;6.472;2023-03-14T10:33:23;14.20;92.20
52016;DHT22;38032;53.326;6.472;2023-03-14T10:36:00;14.60;88.40
52016;DHT22;38032;53.326;6.472;2023-03-14T10:38:29;14.80;85.40
52016;DHT22;38032;53.326;6.472;2023-03-14T10:40:56;14.70;86.40
52016;DHT22;38032;53.326;6.472;2023-03-14T10:43:27;14.30;84.00
52016;DHT22;38032;53.326;6.472;2023-03-14T10:45:57;14.10;83.40
52016;DHT22;38032;53.326;6.472;2023-03-14T10:48:31;14.30;84.40
52016;DHT22;38032;53.326;6.472;2023-03-14T10:53:38;14.60;79.80
52016;DHT22;38032;53.326;6.472;2023-03-14T10:56:05;14.50;77.50
52016;DHT22;38032;53.326;6.472;2023-03-14T10:58:35;14.50;79.10
52016;DHT22;38032;53.326;6.472;2023-03-14T11:01:17;14.60;77.80
52016;DHT22;38032;53.326;6.472;2023-03-14T11:03:54;14.80;77.40
52016;DHT22;38032;53.326;6.472;2023-03-14T11:06:32;14.90;75.80
52016;DHT22;38032;53.326;6.472;2023-03-14T11:09:14;14.60;72.40
52016;DHT22;38032;53.326;6.472;2023-03-14T11:11:46;14.20;70.90
52016;DHT22;38032;53.326;6.472;2023-03-14T11:16:52;14.00;71.10
52016;DHT22;38032;53.326;6.472;2023-03-14T11:19:33;14.00;70.30
52016;DHT22;38032;53.326;6.472;2023-03-14T11:24:42;14.20;70.30
52016;DHT22;38032;53.326;6.472;2023-03-14T11:27:18;14.20;71.00
52016;DHT22;38032;53.326;6.472;2023-03-14T11:29:55;14.30;70.70
52016;DHT22;38032;53.326;6.472;2023-03-14T11:34:59;14.40;70.00
52016;DHT22;38032;53.326;6.472;2023-03-14T11:37:36;14.30;68.90
52016;DHT22;38032;53.326;6.472;2023-03-14T11:40:27;14.10;68.30
52016;DHT22;38032;53.326;6.472;2023-03-14T11:43:00;13.90;69.20
52016;DHT22;38032;53.326;6.472;2023-03-14T11:45:35;13.90;71.20
52016;DHT22;38032;53.326;6.472;2023-03-14T11:48:32;13.90;70.90
52016;DHT22;38032;53.326;6.472;2023-03-14T11:51:04;13.90;69.60
52016;DHT22;38032;53.326;6.472;2023-03-14T11:56:00;14.00;70.00
52016;DHT22;38032;53.326;6.472;2023-03-14T11:58:31;14.00;70.20
52016;DHT22;38032;53.326;6.472;2023-03-14T12:01:05;13.90;69.40
52016;DHT22;38032;53.326;6.472;2023-03-14T12:03:42;13.70;68.70
52016;DHT22;38032;53.326;6.472;2023-03-14T12:06:20;13.40;68.80
52016;DHT22;38032;53.326;6.472;2023-03-14T12:08:57;13.10;69.50
52016;DHT22;38032;53.326;6.472;2023-03-14T12:11:49;12.90;70.50
52016;DHT22;38032;53.326;6.472;2023-03-14T12:14:23;12.70;71.80
52016;DHT22;38032;53.326;6.472;2023-03-14T12:22:05;12.20;72.00
52016;DHT22;38032;53.326;6.472;2023-03-14T12:24:35;11.90;72.30
52016;DHT22;38032;53.326;6.472;2023-03-14T12:27:03;11.60;73.90
52016;DHT22;38032;53.326;6.472;2023-03-14T12:29:30;11.40;74.90
52016;DHT22;38032;53.326;6.472;2023-03-14T12:34:28;11.20;74.90
52016;DHT22;38032;53.326;6.472;2023-03-14T12:39:46;11.20;74.50
52016;DHT22;38032;53.326;6.472;2023-03-14T12:42:20;11.20;73.80
52016;DHT22;38032;53.326;6.472;2023-03-14T12:44:49;11.30;75.40
52016;DHT22;38032;53.326;6.472;2023-03-14T12:49:45;11.40;73.90
52016;DHT22;38032;53.326;6.472;2023-03-14T12:55:53;11.40;74.10
52016;DHT22;38032;53.326;6.472;2023-03-14T12:58:15;11.30;73.80
52016;DHT22;38032;53.326;6.472;2023-03-14T13:00:43;11.20;72.20
52016;DHT22;38032;53.326;6.472;2023-03-14T13:05:56;11.10;74.40
52016;DHT22;38032;53.326;6.472;2023-03-14T13:08:35;11.20;74.10
52016;DHT22;38032;53.326;6.472;2023-03-14T13:11:04;11.20;74.50
52016;DHT22;38032;53.326;6.472;2023-03-14T13:13:34;11.20;73.80
52016;DHT22;38032;53.326;6.472;2023-03-14T13:16:01;11.20;73.60
52016;DHT22;38032;53.326;6.472;2023-03-14T13:18:41;11.30;74.20
52016;DHT22;38032;53.326;6.472;2023-03-14T13:21:14;11.30;74.20
52016;DHT22;38032;53.326;6.472;2023-03-14T13:23:57;11.30;73.20
52016;DHT22;38032;53.326;6.472;2023-03-14T13:26:32;11.30;73.20
52016;DHT22;38032;53.326;6.472;2023-03-14T13:28:59;11.10;72.30
52016;DHT22;38032;53.326;6.472;2023-03-14T13:31:26;11.10;72.90
52016;DHT22;38032;53.326;6.472;2023-03-14T13:34:04;11.10;73.20
52016;DHT22;38032;53.326;6.472;2023-03-14T13:36:30;11.10;74.70
52016;DHT22;38032;53.326;6.472;2023-03-14T13:38:58;11.10;74.00
52016;DHT22;38032;53.326;6.472;2023-03-14T13:41:25;11.10;74.80
52016;DHT22;38032;53.326;6.472;2023-03-14T13:43:51;11.10;75.70
52016;DHT22;38032;53.326;6.472;2023-03-14T13:46:22;11.00;75.20
52016;DHT22;38032;53.326;6.472;2023-03-14T13:48:56;11.10;75.90
52016;DHT22;38032;53.326;6.472;2023-03-14T13:51:24;11.10;75.80
52016;DHT22;38032;53.326;6.472;2023-03-14T13:53:55;11.10;75.10
52016;DHT22;38032;53.326;6.472;2023-03-14T13:56:23;11.10;74.50
52016;DHT22;38032;53.326;6.472;2023-03-14T13:58:49;11.20;75.00
52016;DHT22;38032;53.326;6.472;2023-03-14T14:03:46;11.20;74.50
52016;DHT22;38032;53.326;6.472;2023-03-14T14:06:34;11.20;74.10
52016;DHT22;38032;53.326;6.472;2023-03-14T14:09:08;11.10;72.00
52016;DHT22;38032;53.326;6.472;2023-03-14T14:11:41;10.90;71.70
52016;DHT22;38032;53.326;6.472;2023-03-14T14:14:12;10.80;72.50
52016;DHT22;38032;53.326;6.472;2023-03-14T14:16:39;10.80;71.80
52016;DHT22;38032;53.326;6.472;2023-03-14T14:19:05;10.60;71.70
52016;DHT22;38032;53.326;6.472;2023-03-14T14:21:32;10.50;73.00
52016;DHT22;38032;53.326;6.472;2023-03-14T14:23:58;10.40;75.10
52016;DHT22;38032;53.326;6.472;2023-03-14T14:26:26;10.30;76.30
52016;DHT22;38032;53.326;6.472;2023-03-14T14:29:04;10.30;77.00
52016;DHT22;38032;53.326;6.472;2023-03-14T14:31:31;10.20;79.30
52016;DHT22;38032;53.326;6.472;2023-03-14T14:33:59;10.10;80.00
52016;DHT22;38032;53.326;6.472;2023-03-14T14:36:32;9.90;80.80
52016;DHT22;38032;53.326;6.472;2023-03-14T14:39:18;9.80;81.50
52016;DHT22;38032;53.326;6.472;2023-03-14T14:41:48;9.90;82.30
52016;DHT22;38032;53.326;6.472;2023-03-14T14:44:18;9.80;82.60
52016;DHT22;38032;53.326;6.472;2023-03-14T14:46:46;9.70;81.60
52016;DHT22;38032;53.326;6.472;2023-03-14T14:49:14;9.70;79.90
52016;DHT22;38032;53.326;6.472;2023-03-14T14:51:44;9.60;78.70
52016;DHT22;38032;53.326;6.472;2023-03-14T14:54:17;9.60;78.10
52016;DHT22;38032;53.326;6.472;2023-03-14T14:57:03;9.60;78.10
52016;DHT22;38032;53.326;6.472;2023-03-14T14:59:29;9.60;78.30
52016;DHT22;38032;53.326;6.472;2023-03-14T15:01:58;9.70;77.80
52016;DHT22;38032;53.326;6.472;2023-03-14T15:04:25;9.70;77.50
52016;DHT22;38032;53.326;6.472;2023-03-14T15:06:52;9.80;76.80
52016;DHT22;38032;53.326;6.472;2023-03-14T15:09:19;9.90;76.40
52016;DHT22;38032;53.326;6.472;2023-03-14T15:11:46;9.90;75.30
52016;DHT22;38032;53.326;6.472;2023-03-14T15:14:12;10.00;74.00
52016;DHT22;38032;53.326;6.472;2023-03-14T15:16:39;9.90;72.90
52016;DHT22;38032;53.326;6.472;2023-03-14T15:19:23;9.90;73.10
52016;DHT22;38032;53.326;6.472;2023-03-14T15:21:56;9.90;73.40
52016;DHT22;38032;53.326;6.472;2023-03-14T15:24:22;9.90;73.60
52016;DHT22;38032;53.326;6.472;2023-03-14T15:26:48;9.90;74.40
52016;DHT22;38032;53.326;6.472;2023-03-14T15:29:14;10.00;74.70
52016;DHT22;38032;53.326;6.472;2023-03-14T15:31:40;10.00;74.80
52016;DHT22;38032;53.326;6.472;2023-03-14T15:34:08;9.90;74.30
52016;DHT22;38032;53.326;6.472;2023-03-14T15:36:35;9.90;73.60
52016;DHT22;38032;53.326;6.472;2023-03-14T15:39:02;9.80;73.40
52016;DHT22;38032;53.326;6.472;2023-03-14T15:41:29;9.80;73.30
52016;DHT22;38032;53.326;6.472;2023-03-14T15:43:55;9.70;72.90
52016;DHT22;38032;53.326;6.472;2023-03-14T15:46:21;9.70;72.20
52016;DHT22;38032;53.326;6.472;2023-03-14T15:48:49;9.70;72.30
52016;DHT22;38032;53.326;6.472;2023-03-14T15:51:16;9.70;72.30
52016;DHT22;38032;53.326;6.472;2023-03-14T15:53:42;9.60;71.70
52016;DHT22;38032;53.326;6.472;2023-03-14T15:56:13;9.60;72.20
52016;DHT22;38032;53.326;6.472;2023-03-14T15:58:39;9.60;73.60
52016;DHT22;38032;53.326;6.472;2023-03-14T16:01:07;9.50;75.90
52016;DHT22;38032;53.326;6.472;2023-03-14T16:03:35;9.30;75.60
52016;DHT22;38032;53.326;6.472;2023-03-14T16:06:01;9.10;75.10
52016;DHT22;38032;53.326;6.472;2023-03-14T16:08:27;8.90;75.90
52016;DHT22;38032;53.326;6.472;2023-03-14T16:10:56;8.70;77.70
52016;DHT22;38032;53.326;6.472;2023-03-14T16:13:23;8.60;79.80
52016;DHT22;38032;53.326;6.472;2023-03-14T16:15:58;8.60;82.30
52016;DHT22;38032;53.326;6.472;2023-03-14T16:18:24;8.50;85.80
52016;DHT22;38032;53.326;6.472;2023-03-14T16:20:54;8.50;87.10
52016;DHT22;38032;53.326;6.472;2023-03-14T16:23:20;8.50;87.30
52016;DHT22;38032;53.326;6.472;2023-03-14T16:25:46;8.50;86.80
52016;DHT22;38032;53.326;6.472;2023-03-14T16:28:12;8.50;86.20